Time;durP1;ratioP1;P1;durP2;ratioP2;P2;SDS_P1;SDS_P2;PMS_P1;PMS_P2;Temp;Humidity;BMP_temperature;BMP_pressure;BME280_temperature;BME280_humidity;BME280_pressure;Samples;Min_cycle;Max_cycle;Signal;HPM_P1;HPM_P2
2022/11/11 00:02:03;229191.00;0.76;396.16;0.00;0.00;0.62;;;;;11.20;1.00;;;;;;2268162;61;1938;-87
2022/11/11 00:09:31;597915.00;1.99;1030.62;0.00;0.00;0.62;;;;;10.00;1.00;;;;;;2278204;61;1177;-86
2022/11/11 00:11:58;210488.00;0.70;363.98;0.00;0.00;0.62;;;;;9.80;2.70;;;;;;2276160;61;1075;-89
2022/11/11 00:14:25;181426.00;0.60;313.95;0.00;0.00;0.62;;;;;9.90;2.50;;;;;;2276149;61;1675;-87
2022/11/11 00:30:02;475542.00;1.59;819.73;0.00;0.00;0.62;;;;;9.40;3.40;;;;;;2273861;61;1396;-87
2022/11/11 00:32:32;273801.00;0.91;472.88;0.00;0.00;0.62;;;;;9.20;4.10;;;;;;2272047;61;1738;-88
2022/11/11 00:37:47;64294.00;0.21;111.90;0.00;0.00;0.62;;;;;8.90;4.60;;;;;;2269312;61;1297;-89
2022/11/11 00:40:14;0.00;0.00;0.62;0.00;0.00;0.62;;;;;8.80;6.40;;;;;;2267880;61;2004;-88
2022/11/11 00:42:42;143817.00;0.48;249.15;12655.00;0.04;22.55;;;;;8.30;7.10;;;;;;2268010;61;1093;-88
2022/11/11 00:45:10;201468.00;0.67;348.45;0.00;0.00;0.62;;;;;8.40;7.60;;;;;;2268005;61;1095;-88
2022/11/11 00:53:12;38846.00;0.13;67.89;0.00;0.00;0.62;;;;;8.30;6.80;;;;;;2268088;61;730;-87
2022/11/11 00:55:40;29170.00;0.10;51.15;0.00;0.00;0.62;;;;;8.30;7.80;;;;;;2267944;61;1056;-89
2022/11/11 00:58:07;44108.00;0.15;77.00;0.00;0.00;0.62;;;;;8.50;7.80;;;;;;2267837;61;1740;-86
2022/11/11 01:00:35;463602.00;1.55;799.18;67494.00;0.22;117.43;;;;;8.50;7.00;;;;;;2267882;61;2018;-87
2022/11/11 01:03:02;367587.00;1.23;634.09;54854.00;0.18;95.58;;;;;8.40;6.50;;;;;;2268201;61;1637;-87
2022/11/11 01:05:30;151357.00;0.50;262.15;0.00;0.00;0.62;;;;;8.40;6.30;;;;;;2268644;61;1153;-87
2022/11/11 01:07:57;239050.00;0.80;413.12;0.00;0.00;0.62;;;;;8.40;6.60;;;;;;2268555;61;1349;-87
2022/11/11 01:10:40;170533.00;0.57;295.18;0.00;0.00;0.62;;;;;8.50;6.90;;;;;;2268593;61;1773;-88
2022/11/11 01:13:14;176031.00;0.59;304.65;99081.00;0.33;171.99;;;;;8.60;6.70;;;;;;2268657;61;916;-87
2022/11/11 01:15:44;383157.00;1.28;660.85;92049.00;0.31;159.85;;;;;8.70;6.20;;;;;;2268691;61;1658;-89
2022/11/11 01:18:12;330785.00;1.10;570.84;85416.00;0.28;148.39;;;;;8.60;6.90;;;;;;2279845;40;3761;-87
2022/11/11 01:20:41;411431.00;1.37;709.46;120818.00;0.40;209.49;;;;;8.70;6.50;;;;;;2272393;61;2007;-87
2022/11/11 01:25:39;848935.00;2.83;1466.60;89017.00;0.30;154.61;;;;;8.60;6.50;;;;;;2275177;61;1301;-87
2022/11/11 01:28:08;418974.00;1.40;722.43;95053.00;0.32;165.03;;;;;8.70;6.70;;;;;;2272447;61;1640;-88
2022/11/11 01:30:36;424326.00;1.41;731.63;91051.00;0.30;158.12;;;;;8.80;6.40;;;;;;2272495;61;1048;-88
2022/11/11 01:33:03;562087.00;1.87;968.80;90301.00;0.30;156.83;;;;;8.60;5.80;;;;;;2272356;61;1083;-86
2022/11/11 01:35:31;446901.00;1.49;770.45;89982.00;0.30;156.28;;;;;8.50;6.60;;;;;;2272338;61;1090;-89
2022/11/11 01:37:59;472830.00;1.58;815.06;106563.00;0.36;184.90;;;;;8.40;6.20;;;;;;2272362;61;1758;-88
2022/11/11 01:40:27;429205.00;1.43;740.02;97927.00;0.33;169.99;;;;;8.40;6.10;;;;;;2272428;61;1089;-86
2022/11/11 01:43:15;177921.00;0.59;307.91;0.00;0.00;0.62;;;;;8.60;6.50;;;;;;2272529;61;2010;-89
2022/11/11 01:45:49;359083.00;1.20;619.47;97767.00;0.33;169.72;;;;;8.60;5.80;;;;;;2272574;61;1084;-88
2022/11/11 01:51:11;324862.00;1.08;560.65;95172.00;0.32;165.24;;;;;8.60;5.20;;;;;;2272429;61;671;-87
2022/11/11 01:53:39;729865.00;2.43;1259.07;116771.00;0.39;202.51;;;;;8.40;5.30;;;;;;2272485;61;1741;-89
2022/11/11 01:58:37;651876.00;2.17;1123.88;0.00;0.00;0.62;;;;;8.10;6.30;;;;;;2278447;55;3805;-87
2022/11/11 02:01:04;232374.00;0.77;401.63;0.00;0.00;0.62;;;;;8.30;6.80;;;;;;2272134;61;1992;-88
2022/11/11 02:03:35;172842.00;0.58;299.16;0.00;0.00;0.62;;;;;8.30;5.60;;;;;;2272496;61;1019;-89
2022/11/11 02:06:01;274947.00;0.92;474.85;0.00;0.00;0.62;;;;;8.00;6.20;;;;;;2272516;61;1706;-89
2022/11/11 02:08:33;201137.00;0.67;347.88;0.00;0.00;0.62;;;;;8.00;6.30;;;;;;2272366;61;1695;-89
2022/11/11 02:11:07;284366.00;0.95;491.04;0.00;0.00;0.62;;;;;8.00;5.90;;;;;;2272356;61;1122;-87
2022/11/11 02:16:24;65716.00;0.22;114.36;0.00;0.00;0.62;;;;;8.30;5.30;;;;;;2272458;61;1396;-87
2022/11/11 02:21:28;829686.00;2.77;1432.95;0.00;0.00;0.62;;;;;8.20;5.10;;;;;;2273836;61;1974;-89
2022/11/11 02:24:04;323495.00;1.08;558.31;0.00;0.00;0.62;;;;;8.00;5.50;;;;;;2272306;61;871;-88
2022/11/11 02:26:35;167190.00;0.56;289.43;0.00;0.00;0.62;;;;;8.20;5.60;;;;;;2272306;61;1496;-89
2022/11/11 02:29:05;172138.00;0.57;297.95;0.00;0.00;0.62;;;;;8.10;5.10;;;;;;2272412;61;896;-87
2022/11/11 02:31:33;171028.00;0.57;296.04;0.00;0.00;0.62;;;;;7.80;5.60;;;;;;2272418;61;965;-88
2022/11/11 02:36:29;918340.00;3.06;1588.35;0.00;0.00;0.62;;;;;7.70;6.20;;;;;;2277858;61;1434;-88
2022/11/11 02:38:56;215282.00;0.72;372.23;0.00;0.00;0.62;;;;;7.80;6.00;;;;;;2276388;61;1124;-88
2022/11/11 02:44:09;34102.00;0.11;59.68;0.00;0.00;0.62;;;;;7.60;6.10;;;;;;2276408;61;678;-88
2022/11/11 02:46:36;21363.00;0.07;37.63;0.00;0.00;0.62;;;;;7.70;6.90;;;;;;2276353;61;1364;-87
2022/11/11 02:49:03;70383.00;0.23;122.42;0.00;0.00;0.62;;;;;7.70;5.80;;;;;;2276454;61;1749;-89
2022/11/11 02:51:30;103178.00;0.34;179.06;0.00;0.00;0.62;;;;;7.80;5.80;;;;;;2276463;61;1716;-88
2022/11/11 02:54:02;156242.00;0.52;270.56;0.00;0.00;0.62;;;;;7.60;5.40;;;;;;2276337;61;1084;-89
2022/11/11 02:59:29;365327.00;1.22;630.20;86596.00;0.29;150.43;;;;;7.80;5.90;;;;;;2263707;61;1593;-87
2022/11/11 03:01:56;598372.00;1.99;1031.41;85606.00;0.29;148.72;;;;;7.80;6.00;;;;;;2263557;61;2011;-89
2022/11/11 03:04:23;709071.00;2.36;1222.97;122700.00;0.41;212.74;;;;;7.70;5.40;;;;;;2263528;61;1739;-89
2022/11/11 03:06:50;430903.00;1.44;742.94;89382.00;0.30;155.24;;;;;7.90;5.70;;;;;;2263553;61;1477;-88
2022/11/11 03:09:17;516399.00;1.72;890.06;96027.00;0.32;166.71;;;;;7.70;5.60;;;;;;2263576;61;1092;-88
2022/11/11 03:11:45;421641.00;1.41;727.01;99400.00;0.33;172.54;;;;;7.60;5.40;;;;;;2263541;61;1080;-88
2022/11/11 03:14:13;318480.00;1.06;549.69;97143.00;0.32;168.64;;;;;7.60;6.80;;;;;;2263518;61;1155;-87
2022/11/11 03:19:24;434031.00;1.45;748.32;0.00;0.00;0.62;;;;;7.90;6.50;;;;;;2263659;61;684;-88
2022/11/11 03:21:49;348932.00;1.16;602.03;81790.00;0.27;142.13;;;;;7.80;6.00;;;;;;2263348;61;2019;-88
2022/11/11 03:24:16;214208.00;0.71;370.38;0.00;0.00;0.62;;;;;7.70;6.70;;;;;;2263434;61;1073;-86
2022/11/11 03:26:45;117066576.00;390.22;64986636.00;116963776.00;389.88;64815420.00;;;;;7.80;6.70;;;;;;2263375;61;1412;-89
2022/11/11 03:29:12;73902.00;0.25;128.50;0.00;0.00;0.62;;;;;7.70;6.50;;;;;;2264028;61;1079;-87
2022/11/11 03:31:38;116428.00;0.39;201.92;0.00;0.00;0.62;;;;;7.80;6.70;;;;;;2276206;61;1141;-88
2022/11/11 03:34:21;67058.00;0.22;116.68;0.00;0.00;0.62;;;;;7.50;6.70;;;;;;2276093;61;1251;-88
2022/11/11 03:42:03;281469.00;0.94;486.06;0.00;0.00;0.62;;;;;6.70;8.60;;;;;;2273894;61;1893;-89
2022/11/11 03:44:30;226513.00;0.76;391.55;0.00;0.00;0.62;;;;;6.70;8.70;;;;;;2272136;61;1154;-85
2022/11/11 03:49:25;235120.00;0.78;406.36;0.00;0.00;0.62;;;;;6.80;8.70;;;;;;2273984;61;1387;-89
2022/11/11 03:54:19;431369.00;1.44;743.74;0.00;0.00;0.62;;;;;6.90;8.70;;;;;;2273814;61;1360;-90
2022/11/11 03:56:46;180618.00;0.60;312.55;0.00;0.00;0.62;;;;;6.80;8.70;;;;;;2271095;61;1626;-88
2022/11/11 03:59:15;272118.00;0.91;469.99;507.00;0.00;1.50;;;;;7.00;8.80;;;;;;2298070;40;3627;-89
2022/11/11 04:17:26;611199.00;2.04;1053.56;0.00;0.00;0.62;;;;;7.10;7.10;;;;;;2273498;61;1432;-89
2022/11/11 04:22:41;46129.00;0.15;80.49;0.00;0.00;0.62;;;;;7.10;7.60;;;;;;2271896;61;1927;-90
2022/11/11 04:27:37;802553.00;2.68;1385.58;34951.00;0.12;61.15;;;;;7.10;6.70;;;;;;2273386;61;1419;-87
2022/11/11 04:30:04;81876.00;0.27;142.28;0.00;0.00;0.62;;;;;7.10;7.20;;;;;;2277521;55;3759;-88
2022/11/11 04:32:37;204418.00;0.68;353.53;0.00;0.00;0.62;;;;;7.10;6.30;;;;;;2275826;61;1481;-89
2022/11/11 04:37:34;633265.00;2.11;1091.69;0.00;0.00;0.62;;;;;7.20;6.20;;;;;;2283277;40;3520;-86
2022/11/11 04:47:59;104869.00;0.35;181.98;0.00;0.00;0.62;;;;;7.30;6.60;;;;;;2269694;61;1435;-87
2022/11/11 04:57:53;877504.00;2.93;1516.64;0.00;0.00;0.62;;;;;6.70;8.60;;;;;;2287971;56;3697;-88
2022/11/11 05:21:19;1167422.00;3.89;2031.43;95602.00;0.32;165.98;;;;;6.50;10.50;;;;;;742575;41;3404;-89
2022/11/11 05:45:46;622410.00;2.07;1072.93;0.00;0.00;0.62;;;;;6.90;6.70;;;;;;2285096;55;3667;-89
2022/11/11 05:58:22;1134023.00;3.78;1971.38;43784.00;0.15;76.43;;;;;6.90;6.20;;;;;;2326772;55;3596;-88
2022/11/11 06:13:18;770447.00;2.57;1329.63;0.00;0.00;0.62;;;;;6.80;7.20;;;;;;1919864;41;3561;-88
2022/11/11 07:03:22;1461219.00;4.87;2570.36;107260.00;0.36;186.10;;;;;7.30;6.40;;;;;;1563765;56;3572;-88
2022/11/11 07:23:24;667174.00;2.22;1150.36;9029.00;0.03;16.27;;;;;8.00;5.50;;;;;;2274004;61;1929;-87
2022/11/11 07:35:56;307794.00;1.03;531.32;0.00;0.00;0.62;;;;;7.80;5.90;;;;;;2288459;56;3675;-89
2022/11/11 07:38:24;168800.00;0.56;292.20;0.00;0.00;0.62;;;;;7.80;6.70;;;;;;2276024;40;3621;-89
2022/11/11 07:40:51;110416.00;0.37;191.55;0.00;0.00;0.62;;;;;7.80;6.60;;;;;;2272067;61;1111;-88
2022/11/11 07:43:18;214134.00;0.71;370.25;0.00;0.00;0.62;;;;;7.90;6.80;;;;;;2271943;61;1931;-88
2022/11/11 07:45:45;187308.00;0.62;324.07;0.00;0.00;0.62;;;;;7.90;7.40;;;;;;2272021;61;1119;-88
2022/11/11 07:48:12;210508.00;0.70;364.01;0.00;0.00;0.62;;;;;8.30;6.80;;;;;;2268506;61;1596;-87
2022/11/11 07:53:08;620406.00;2.07;1069.47;0.00;0.00;0.62;;;;;8.20;6.70;;;;;;2270081;61;1424;-88
2022/11/11 07:55:36;150337.00;0.50;260.39;0.00;0.00;0.62;;;;;8.30;6.50;;;;;;2267903;61;1054;-90
2022/11/11 07:58:03;182961.00;0.61;316.59;0.00;0.00;0.62;;;;;8.20;7.70;;;;;;2268049;61;1288;-88
2022/11/11 08:00:30;29693.00;0.10;52.05;0.00;0.00;0.62;;;;;8.30;7.10;;;;;;2267987;61;1070;-89
2022/11/11 08:02:57;200617.00;0.67;346.99;0.00;0.00;0.62;;;;;8.30;6.80;;;;;;2268023;61;1922;-88
2022/11/11 08:05:24;146666.00;0.49;254.06;0.00;0.00;0.62;;;;;8.60;8.40;;;;;;2268088;61;1122;-87
2022/11/11 08:07:51;87519.00;0.29;152.02;0.00;0.00;0.62;;;;;8.90;9.10;;;;;;2268028;61;1278;-86
2022/11/11 08:10:18;148901.00;0.50;257.91;0.00;0.00;0.62;;;;;9.10;8.40;;;;;;2267958;61;1722;-85
2022/11/11 08:15:31;8514.00;0.03;15.37;0.00;0.00;0.62;;;;;9.30;4.40;;;;;;2268085;61;719;-87
2022/11/11 08:17:58;544708.00;1.82;938.84;168625.00;0.56;291.90;;;;;9.30;6.30;;;;;;2267963;61;1293;-87
2022/11/11 08:20:25;79262.00;0.26;137.76;0.00;0.00;0.62;;;;;9.50;5.40;;;;;;2268166;61;1110;-87
2022/11/11 08:22:54;154439.00;0.51;267.46;0.00;0.00;0.62;;;;;10.20;5.70;;;;;;2267976;61;1994;-88
2022/11/11 08:25:22;116683.00;0.39;202.36;0.00;0.00;0.62;;;;;10.60;3.80;;;;;;2268089;61;1633;-86
2022/11/11 08:27:57;119560.00;0.40;207.32;20063.00;0.07;35.38;;;;;10.70;2.40;;;;;;2268021;61;1293;-88
2022/11/11 08:30:24;276616.00;0.92;477.72;0.00;0.00;0.62;;;;;10.90;2.20;;;;;;2268125;61;1095;-86
2022/11/11 08:32:57;44356.00;0.15;77.42;0.00;0.00;0.62;;;;;10.90;1.90;;;;;;2268046;61;1145;-89
2022/11/11 08:35:24;47315.00;0.16;82.54;0.00;0.00;0.62;;;;;10.80;2.10;;;;;;2268054;61;924;-89
2022/11/11 08:37:51;339871.00;1.13;586.45;14735.00;0.05;26.15;;;;;10.80;2.80;;;;;;2267984;61;1288;-88
2022/11/11 08:40:18;44127.00;0.15;77.03;0.00;0.00;0.62;;;;;10.90;3.30;;;;;;2267983;61;1139;-87
2022/11/11 08:42:45;0.00;0.00;0.62;0.00;0.00;0.62;;;;;10.80;2.90;;;;;;2268005;61;1991;-89
2022/11/11 08:45:13;30532.00;0.10;53.50;0.00;0.00;0.62;;;;;11.00;3.30;;;;;;2268085;61;1596;-87
2022/11/11 08:47:44;172358.00;0.57;298.33;42545.00;0.14;74.29;;;;;11.00;3.70;;;;;;2268014;61;1343;-87
2022/11/11 08:50:12;281441.00;0.94;486.01;27695.00;0.09;48.59;;;;;10.90;3.60;;;;;;2268082;61;1094;-88
2022/11/11 08:52:39;69601.00;0.23;121.07;0.00;0.00;0.62;;;;;11.10;5.30;;;;;;2271388;61;1051;-86
2022/11/11 08:55:06;246206.00;0.82;425.43;27104.00;0.09;47.57;;;;;11.10;4.20;;;;;;2271976;61;1088;-87
2022/11/11 08:57:33;114522.00;0.38;198.63;19875.00;0.07;35.05;;;;;11.20;4.30;;;;;;2272097;61;1369;-86
2022/11/11 08:59:59;255122.00;0.85;440.76;0.00;0.00;0.62;;;;;11.60;4.60;;;;;;2272091;61;1082;-86
2022/11/11 09:02:28;8426.00;0.03;15.22;0.00;0.00;0.62;;;;;11.90;3.50;;;;;;2271969;61;1993;-87
2022/11/11 09:04:55;96822.00;0.32;168.09;29938.00;0.10;52.48;;;;;12.20;2.90;;;;;;2272124;61;1034;-86
2022/11/11 09:07:22;410612.00;1.37;708.05;137639.00;0.46;238.50;;;;;12.50;5.00;;;;;;2271922;61;1727;-87
2022/11/11 09:09:49;126467.00;0.42;219.24;0.00;0.00;0.62;;;;;12.40;2.20;;;;;;2272034;61;1003;-87
2022/11/11 09:12:16;90536.00;0.30;157.23;0.00;0.00;0.62;;;;;12.70;4.80;;;;;;2271966;61;1052;-87
2022/11/11 09:14:43;0.00;0.00;0.62;0.00;0.00;0.62;;;;;13.00;3.90;;;;;;2271988;61;1634;-88
2022/11/11 09:17:10;83747.00;0.28;145.51;0.00;0.00;0.62;;;;;13.30;1.70;;;;;;2271995;61;1406;-87
2022/11/11 09:19:38;189935.00;0.63;328.60;0.00;0.00;0.62;;;;;13.30;1.20;;;;;;2271991;61;1717;-88
2022/11/11 09:22:05;56737.00;0.19;98.84;0.00;0.00;0.62;;;;;13.00;1.00;;;;;;2271904;61;2002;-87
2022/11/11 09:24:33;19541.00;0.07;34.48;0.00;0.00;0.62;;;;;12.90;2.80;;;;;;2272467;61;1047;-87
2022/11/11 09:27:00;123449.00;0.41;214.03;0.00;0.00;0.62;;;;;13.20;3.70;;;;;;2272589;61;1269;-87
2022/11/11 09:29:27;53330.00;0.18;92.94;0.00;0.00;0.62;;;;;13.60;4.60;;;;;;2272708;61;1071;-87
2022/11/11 09:31:54;71411.00;0.24;124.20;0.00;0.00;0.62;;;;;13.70;3.40;;;;;;2272522;61;1092;-87
2022/11/11 09:34:20;82245.00;0.27;142.92;0.00;0.00;0.62;;;;;13.70;1.60;;;;;;2272557;61;1124;-88
2022/11/11 09:36:49;132451.00;0.44;229.56;0.00;0.00;0.62;;;;;13.80;2.50;;;;;;2272609;61;1739;-88
2022/11/11 09:39:16;117258.00;0.39;203.35;0.00;0.00;0.62;;;;;13.80;1.30;;;;;;2272628;61;1131;-89
2022/11/11 09:41:54;26825.00;0.09;47.09;0.00;0.00;0.62;;;;;13.70;1.00;;;;;;2272618;61;1122;-89
2022/11/11 09:44:38;52037.00;0.17;90.71;0.00;0.00;0.62;;;;;13.70;1.30;;;;;;2272511;61;1923;-89
2022/11/11 09:47:18;0.00;0.00;0.62;0.00;0.00;0.62;;;;;13.50;1.10;;;;;;2272477;61;1487;-89
2022/11/11 09:49:58;79146.00;0.26;137.56;0.00;0.00;0.62;;;;;13.90;1.90;;;;;;2272593;61;1723;-87
2022/11/11 09:52:31;112622.00;0.38;195.35;0.00;0.00;0.62;;;;;14.10;1.80;;;;;;2272531;61;1135;-88
2022/11/11 09:55:04;101649.00;0.34;176.42;0.00;0.00;0.62;;;;;14.10;1.80;;;;;;2272529;61;1028;-89
2022/11/11 09:57:38;133189.00;0.44;230.83;0.00;0.00;0.62;;;;;14.20;1.10;;;;;;2272395;61;1701;-88
2022/11/11 10:00:15;45854.00;0.15;80.02;0.00;0.00;0.62;;;;;14.30;2.00;;;;;;2272539;61;1155;-88
2022/11/11 10:02:49;145110.00;0.48;251.38;0.00;0.00;0.62;;;;;14.40;2.00;;;;;;2272584;61;1909;-91
2022/11/11 10:05:22;101639.00;0.34;176.40;0.00;0.00;0.62;;;;;14.40;1.00;;;;;;2272541;61;1183;-87
2022/11/11 10:07:56;123319.00;0.41;213.81;0.00;0.00;0.62;;;;;14.60;1.00;;;;;;2272531;61;1379;-88
2022/11/11 10:10:32;109603.00;0.37;190.14;0.00;0.00;0.62;;;;;14.70;1.00;;;;;;2272608;61;1145;-88
2022/11/11 10:12:59;269749.00;0.90;465.91;0.00;0.00;0.62;;;;;14.70;1.00;;;;;;2272497;61;1484;-87
2022/11/11 10:15:34;209390.00;0.70;362.09;0.00;0.00;0.62;;;;;14.80;1.00;;;;;;2272400;61;1111;-88
2022/11/11 10:18:14;0.00;0.00;0.62;0.00;0.00;0.62;;;;;15.00;1.00;;;;;;2272462;61;1364;-88
2022/11/11 10:20:42;197435.00;0.66;341.51;0.00;0.00;0.62;;;;;14.90;1.00;;;;;;2272541;61;1092;-88
2022/11/11 10:23:15;276699.00;0.92;477.86;0.00;0.00;0.62;;;;;14.60;1.00;;;;;;2272384;61;1986;-88
2022/11/11 10:25:51;538706.00;1.80;928.49;17446.00;0.06;30.85;;;;;14.60;1.00;;;;;;2272482;61;1733;-88
2022/11/11 10:28:21;77912.00;0.26;135.43;0.00;0.00;0.62;;;;;15.00;1.00;;;;;;2272483;61;1467;-87
2022/11/11 10:30:51;36307.00;0.12;63.50;0.00;0.00;0.62;;;;;15.10;1.00;;;;;;2272454;61;1129;-90
2022/11/11 10:33:23;0.00;0.00;0.62;0.00;0.00;0.62;;;;;15.00;1.00;;;;;;2272502;61;1005;-87
2022/11/11 10:35:52;155041.00;0.52;268.49;0.00;0.00;0.62;;;;;14.90;1.00;;;;;;2272439;61;1158;-87
2022/11/11 10:38:33;232930.00;0.78;402.59;0.00;0.00;0.62;;;;;14.70;1.00;;;;;;2272430;61;1298;-88
2022/11/11 10:41:12;37254.00;0.12;65.14;0.00;0.00;0.62;;;;;14.80;1.00;;;;;;2272507;61;1068;-88
2022/11/11 10:43:38;150140.00;0.50;260.05;0.00;0.00;0.62;;;;;14.70;1.00;;;;;;2272312;61;1920;-88
2022/11/11 10:46:15;131359.00;0.44;227.67;0.00;0.00;0.62;;;;;14.50;1.00;;;;;;2272475;61;1084;-86
2022/11/11 10:48:54;11241.00;0.04;20.10;0.00;0.00;0.62;;;;;14.10;1.00;;;;;;2272448;61;1095;-88
2022/11/11 10:51:23;84552.00;0.28;146.90;18322.00;0.06;32.36;;;;;14.40;1.90;;;;;;2272317;61;1201;-87
2022/11/11 10:54:01;129181.00;0.43;223.92;0.00;0.00;0.62;;;;;14.60;1.00;;;;;;2272379;61;1029;-88
2022/11/11 10:56:36;229005.00;0.76;395.84;0.00;0.00;0.62;;;;;14.90;1.00;;;;;;2272365;61;1814;-89
2022/11/11 10:59:14;141687.00;0.47;245.48;0.00;0.00;0.62;;;;;15.20;1.00;;;;;;2272243;61;1627;-88
2022/11/11 11:01:48;295556.00;0.99;510.28;11339.00;0.04;20.27;;;;;15.40;1.00;;;;;;2272247;61;1043;-87
2022/11/11 11:04:24;182682.00;0.61;316.11;0.00;0.00;0.62;;;;;15.40;1.00;;;;;;2272306;61;1922;-91
2022/11/11 11:06:54;240333.00;0.80;415.32;0.00;0.00;0.62;;;;;15.60;1.00;;;;;;2272283;61;1616;-88
2022/11/11 11:09:29;96361.00;0.32;167.29;0.00;0.00;0.62;;;;;15.90;1.00;;;;;;2272345;61;1096;-88
2022/11/11 11:12:00;225695.00;0.75;390.14;15849.00;0.05;28.08;;;;;16.30;1.00;;;;;;2272295;61;1156;-86
2022/11/11 11:14:32;227887.00;0.76;393.91;13595.00;0.05;24.18;;;;;16.30;1.00;;;;;;2272255;61;1236;-88
2022/11/11 11:17:06;135908.00;0.45;235.52;0.00;0.00;0.62;;;;;16.30;1.00;;;;;;2272265;61;1474;-85
2022/11/11 11:19:34;313326.00;1.04;540.83;0.00;0.00;0.62;;;;;16.30;1.00;;;;;;2271976;61;1111;-87
2022/11/11 11:52:19;1288359.00;4.29;2250.82;99792.00;0.33;173.21;;;;;16.90;1.00;;;;;;1629451;55;3616;-92
2022/11/11 11:54:58;379190.00;1.26;654.03;81630.00;0.27;141.85;;;;;17.00;1.00;;;;;;2268804;61;1542;-89
2022/11/11 11:57:55;391567.00;1.31;675.31;125251.00;0.42;217.14;;;;;17.30;1.00;;;;;;2266701;61;1736;-88
2022/11/11 12:14:24;1855493.00;6.18;3331.70;40265.00;0.13;70.35;;;;;17.20;1.00;;;;;;2265315;61;1331;-87
2022/11/11 14:07:00;1418182.00;4.73;2490.09;84771.00;0.28;147.28;;;;;17.70;1.00;;;;;;2270399;61;1179;-88
2022/11/11 14:47:05;1647689.00;5.49;2924.23;16261.00;0.05;28.79;;;;;18.00;1.00;;;;;;2293121;56;3580;-87
2022/11/11 15:30:12;1143312.00;3.81;1988.06;0.00;0.00;0.62;;;;;17.80;1.00;;;;;;2419614;40;3625;-87
2022/11/11 16:00:33;1700221.00;5.67;3025.85;0.00;0.00;0.62;;;;;17.90;1.00;;;;;;2356836;40;3583;-87
2022/11/11 17:09:39;1230474.00;4.10;2145.42;0.00;0.00;0.62;;;;;15.70;3.00;;;;;;2412818;40;3475;-87
2022/11/11 19:32:26;1215116.00;4.05;2117.57;87945.00;0.29;152.76;;;;;14.20;5.90;;;;;;2278884;61;1340;-89
2022/11/11 20:10:26;1591771.00;5.31;2817.02;0.00;0.00;0.62;;;;;13.20;7.00;;;;;;2281399;56;3595;-87
2022/11/11 20:43:40;1001008.00;3.34;1734.26;0.00;0.00;0.62;;;;;13.50;3.40;;;;;;2274283;61;1948;-86
2022/11/11 21:11:44;2471373.00;8.24;4641.41;107896.00;0.36;187.20;;;;;14.00;5.20;;;;;;2270154;61;1053;-90
2022/11/11 21:14:12;1368025.00;4.56;2397.15;31605.00;0.11;55.36;;;;;14.00;5.90;;;;;;2268595;61;1121;-88
2022/11/11 21:16:41;1042415.00;3.47;1807.74;67092.00;0.22;116.74;;;;;14.10;5.20;;;;;;2268517;61;1379;-89
2022/11/11 22:01:03;388256.00;1.29;669.62;9603.00;0.03;17.26;;;;;13.60;4.60;;;;;;1637521;40;3217;31
2022/11/11 22:03:50;2326222.00;7.75;4317.10;220722.00;0.74;381.59;;;;;13.80;5.80;;;;;;2283774;40;3564;-85
2022/11/11 22:08:54;1586615.00;5.29;2807.19;99052.00;0.33;171.94;;;;;13.60;1.90;;;;;;1980585;60;2112;-88
2022/11/11 22:13:59;1232515.00;4.11;2149.12;30139.00;0.10;52.82;;;;;13.30;2.70;;;;;;2261745;61;1445;-89
2022/11/11 22:24:17;208780.00;0.70;361.04;0.00;0.00;0.62;;;;;12.00;2.60;;;;;;1213598;40;3232;-89
2022/11/11 22:26:50;189530.00;0.63;327.90;0.00;0.00;0.62;;;;;11.60;3.90;;;;;;2275426;56;3791;-88
2022/11/11 22:55:47;1181999.00;3.94;2057.71;0.00;0.00;0.62;;;;;9.90;7.80;;;;;;2262214;61;1326;-87
2022/11/11 22:58:17;385899.00;1.29;665.57;0.00;0.00;0.62;;;;;9.90;8.80;;;;;;2260858;61;1447;-89
2022/11/11 23:03:20;1130248.00;3.77;1964.60;89753.00;0.30;155.88;;;;;9.70;8.60;;;;;;1574749;41;3383;-87
2022/11/11 23:21:11;1680451.00;5.60;2987.50;94059.00;0.31;163.32;;;;;9.90;7.90;;;;;;2304358;55;3582;-88
2022/11/11 23:33:45;1379290.00;4.60;2417.97;73647.00;0.25;128.06;;;;;10.20;7.50;;;;;;2261361;61;1208;-87
2022/11/11 23:46:17;2262792.00;7.54;4178.63;52699.00;0.18;91.85;;;;;9.80;8.80;;;;;;2266951;55;3611;-87
